Timeline UpdatesTrip UpdatesNews PostsPvt Posts♥♥Travel TipsAdmin PostsConv PostsFollowed PostsChat RequestsBlog PostsPNR Posts

Disclaimer
Search
 
 
Sun Oct 26, 2014 02:08:33 ISTHomeTrainsΣChainsAtlasPNRForumGalleryNewsFAQTripsMembersLoginFeedback
No Recent News for this Train
Other Trains in the News **new
Latest...
.
Sun Oct 07, 2012 (10:22AM)
⇐ Return Journey: Train# 57660

57659/Solapur - Falaknuma Passenger (UnReserved)

Time-Table HAS CHANGED.
Sep 04 2014 (6:27PM)
Change Departure Station:
Change Arrival Station:
Post a Train Travel TipPost a Train Travel Tip **new
Post a Comment/Question/Picture/VideoPost a Comment/Question/Picture/Video
Pantry/Catering
✕ NO Pantry Car
✕ NO Catering
RSA - Rake Sharing
57642 GDG SUR Passenger
Rake/Coach Composition
Loco, SLR, UR 1 To UR 9, SLR
Loco
#WDM 2a Pune/Maula ali Shed
News    PNR    Forum    Time-Table    Availability    Fare Chart    Map    Arr/Dep History    Trips    Gallery    ΣChains    X/O    Timeline    
Travel Time: 3h 55m    17 halts    Distance: 149 km    Avg Speed: 38 km/hr
Type: Passenger
Zone: SCR/South Central
Departs @ 10:20 (Avg 15m late)
Platform# 2
SMTWTFS
Solapur/SUR 
Arrives @ 14:15 (Avg 57m late)
Platform# 1
SMTWTFS
Wadi Junction/WADI 

17 halts. 17 intermediate Stations between Solapur and Wadi Junction

Show ALL intermediate Stations  Show Old Time-Table

#TrkCodeStation NameX/OArrivesAvgDepartsAvgHaltPFDay#KmSpeedElevZoneAddress
1|==|SURSolapur (5)»  -10:20+15210.041461mCRSolapur 413001, Maharashtra
2|==|TKWDTikekarwadi (2)  10:30+2210:31+241m--16.969477mCRSolapur, Maharashtra
3|==!HGHotgi Junction (3)X  10:38+3010:40+442m3114.956473mCRHotgi 413215, Maharashtra
4|==!TLTTilati  10:50+4610:51+551m--124.366454mCRAkalkot Road, Maharashtra
5!==!AKORAkalkot Road (2)X  11:01+5711:02+1:011m--135.346456mCRDist Solapur, Maharashtra
6!==!NGSNagansur  11:09+1:0311:10+1:081m--140.737487mCRSolapur, Maharashtra
7!==!BOTBoroti  11:24+1:0411:25+1:111m--149.260466mCRSolapur, Maharashtra
8!==!DUDDudhani (2)X  11:39+1:1211:40+1:161m1163.241457mCRSolapur, Maharashtra
9!==!KUIKulali  11:54+1:1311:55+1:181m--172.848455mCRBhognalli - Ravoor - Dudhani Rd, Karnataka
10!==!GDGNGaudgaon  12:04+1:1912:05+1:201m--180.053444mCRBhognalli Sindnoor Rd, Karnataka
11!==!GURGanagapur Road  12:12+1:2212:13+1:231m--186.254445mCRDist Gulbarga, Karnataka
12!==!HHDHunsihadgil  12:20+1:2712:22+1:272m--192.563479mCRGulburga, Karnataka
13!==!SVGSawalgi  12:29+1:2712:31+1:272m--199.955462mCRGulburga, Karnataka
14!==!BBDBabladX  12:39+1:2812:40+1:281m--1107.216461mCRGulburga, Karnataka
15!==%GRGulbarga (4)  13:00+4113:05+425m21112.648458mCRGulbarga 585101, Karnataka
16%==%HQRHirenanduru  13:16+1:1913:17+1:191m--1121.465469mCRNandoor K, Karnataka
17%==%MRMartur  13:24+1:1913:25+1:201m--1129.018427mCRGulbarga, Karnataka
18%==%SDBShahabad (3)  13:59+1:0014:00+1:011m21139.340403mCRShahabad, Karnataka
19%==%WADIWadi Junction (4)•  14:15+5714:20+1:045m11149.453431mCRWadi, Karnataka
20/==/SUHSulehalli (1)  14:30+1:1614:31+1:161m11158.360447mSCRState Highway 51, Karnataka
21/==/CTChittapur (3)X  14:37+1:1614:38+1:161m--1164.358427mSCRChitapur, Karnataka
22/==/MQRMalkhaid Road (2)  14:48+1:1414:49+1:161m--1174.073431mSCRMalkhaid Road, Karnataka
23/==/SEMSedam (3)  14:59+1:2415:00+1:271m--1186.163420mSCRSedam ph.no 08441 276066, Karnataka
24/==/KQTKurgunta  15:08+1:3115:09+1:311m--1194.546421mSCRGulbarga, Karnataka
25/==/NAWNawandgi (2)X  15:19+1:3115:20+1:331m--1202.159437mSCRTandur, Telangana
26/==/MVHMantatti (2)X  15:29+1:3515:30+1:381m--1211.026443mSCRMantatte Tandur, Telangana
27/==/TDUTandur (3)  15:50+1:1615:52+1:182m--1219.659457mSCRTandur, Telangana
28/==/RMYRukmapur (2)X  16:03+1:3216:04+1:321m--1230.451465mSCRRangareddy Dist, Telangana
29/==/DRRDharurX  16:15+1:3216:16+1:321m--1239.892513mSCRRangareddy District, Telangana
30/==/MWYMailaram (2)X  16:20-16:21-1m--1245.9101547mSCRRangareddy District, Telangana
31/==/GDQGodamgura (2)X  16:25+1:4416:26+1:461m--1252.660590mSCRRangareddy Dist., Telangana
32/==/VKBVikarabad Junction (3)X  16:35+1:2216:45+1:1710m11261.7105633mSCRRangareddy Dist., Telangana
33/==/CTFChitgidda  16:51+1:4716:52+1:471m--1272.152607mSCRRangareddy Dist., Telangana
34/==/GGDGullagudaX  17:00+1:5617:01+1:561m--1279.074599mSCRRangareddy Dist., Telangana
35/==/RPKRavulapalli Kalan (2)X  17:06-17:07-1m11285.29582mSCRRangareddy Dist., Telangana
36/==/SKPShankarpalli (2)X  17:44+1:0517:45+1:051m11290.673574mSCRRangareddy Dist., Telangana
37/==/NPLNagalapalle (2)  17:54+1:2217:55+1:231m11301.583561mSCRMedak Dist., Telangana
38/==/LPILingampalli (6)X  18:02+2:0618:03+2:101m21311.252558mSCRRangareddy Dist., Telangana
39/==/HFZHafizpet (2)X  18:09+1:4218:10+1:421m11316.562590mSCRHyderabad, Telangana
40/==/SNFSanathnagar (3)XO  18:19+2:0118:20+2:011m11325.824547mSCRHyderabad, Telangana
41/==/BMTBegumpet (2)XO  18:29+1118:30+111m11329.412531mSCRHyderabad, Telangana
42/==/SCSecunderabad Junction (10)O  18:55+5119:00+515m41334.225539mSCRSecunderabad 500003, Telangana
43/==/STPDSitafalmandi (4)X  19:05+4719:06+461m31336.366533mSCRSecunderabad, Telangana
44/==/ATCArts College (2)  19:07-19:08-1m--1337.436521mSCRHyderabad, Telangana
45/==/JOOJamai Osmania (2)XO  19:09-19:10-1m--1338.088515mSCRHyderabad, Telangana
46/==/VARVidya Nagar (2)  19:11-19:12-1m--1339.514505mSCRHyderabad, Telangana
47/==/KCGHyderabad Kacheguda (5)X  19:20+4119:22+412m--1341.448494mSCRHyderabad - 500027, Telangana
48/==/MXTMalakpet (2)X  19:24+519:25+51m21343.038494mSCRHyderabad, Telangana
49/==/DQRDabirpura (2)O  19:27-19:28-1m--1344.212500mSCRHyderabad, Telangana
50/==/YKAYakutpura (2)  19:32-19:33-1m--1345.049505mSCRHyderabad, Telangana
51/==/HPGHuppuguda (2)  19:36+5219:37+521m--1347.49520mSCRHyderabad, Telangana
52/=-|FMFalaknuma (3)  20:05 19:45+38---1348.7-523mSCRHyderabad, Telangana
Scroll to Top
Scroll to Bottom